createdAt,value
2019-04-26T00:02:04.119Z,35.90
2019-04-26T00:04:37.132Z,37.10
2019-04-26T00:07:10.838Z,44.40
2019-04-26T00:09:41.759Z,36.87
2019-04-26T00:12:30.416Z,38.17
2019-04-26T00:15:15.175Z,32.93
2019-04-26T00:17:53.710Z,34.40
2019-04-26T00:20:25.552Z,28.63
2019-04-26T00:22:57.280Z,25.93
2019-04-26T00:25:28.015Z,24.70
2019-04-26T00:27:58.661Z,21.73
2019-04-26T00:30:33.438Z,23.23
2019-04-26T00:33:04.862Z,25.93
2019-04-26T00:35:46.892Z,27.27
2019-04-26T00:38:07.776Z,24.53
2019-04-26T00:40:38.788Z,29.63
2019-04-26T00:43:12.864Z,25.83
2019-04-26T00:45:44.037Z,22.73
2019-04-26T00:48:17.237Z,28.97
2019-04-26T00:50:48.699Z,28.57
2019-04-26T00:53:21.696Z,33.20
2019-04-26T00:55:52.858Z,52.50
2019-04-26T00:58:24.528Z,36.60
2019-04-26T01:00:55.295Z,35.40
2019-04-26T01:03:25.901Z,38.20
2019-04-26T01:06:00.417Z,29.97
2019-04-26T01:08:31.338Z,30.63
2019-04-26T01:11:01.927Z,29.40
2019-04-26T01:13:32.667Z,32.33
2019-04-26T01:16:03.280Z,30.17
2019-04-26T01:18:35.524Z,34.80
2019-04-26T01:21:07.980Z,30.07
2019-04-26T01:23:42.441Z,29.93
2019-04-26T01:26:23.192Z,25.70
2019-04-26T01:29:05.889Z,27.50
2019-04-26T01:31:44.757Z,30.17
2019-04-26T01:34:15.662Z,29.27
2019-04-26T01:36:47.355Z,28.53
2019-04-26T01:39:20.933Z,31.23
2019-04-26T01:41:54.257Z,32.23
2019-04-26T01:44:30.854Z,28.83
2019-04-26T01:47:01.882Z,30.27
2019-04-26T01:49:32.557Z,35.67
2019-04-26T01:52:06.046Z,29.43
2019-04-26T01:54:43.776Z,31.70
2019-04-26T01:57:15.467Z,29.37
2019-04-26T01:59:50.545Z,30.83
2019-04-26T02:02:23.718Z,29.90
2019-04-26T02:05:02.670Z,31.97
2019-04-26T02:07:40.643Z,35.57
2019-04-26T02:10:17.057Z,34.30
2019-04-26T02:12:49.180Z,35.37
2019-04-26T02:15:24.112Z,34.67
2019-04-26T02:17:58.121Z,32.00
2019-04-26T02:21:03.109Z,34.73
2019-04-26T02:23:35.400Z,34.73
2019-04-26T02:26:25.542Z,30.03
2019-04-26T02:28:58.360Z,31.30
2019-04-26T02:31:30.894Z,27.27
2019-04-26T02:34:04.746Z,29.87
2019-04-26T02:36:56.444Z,29.30
2019-04-26T02:39:23.486Z,26.67
2019-04-26T02:41:57.415Z,27.20
2019-04-26T02:44:35.146Z,34.30
2019-04-26T02:47:39.100Z,30.53
2019-04-26T02:50:23.533Z,30.93
2019-04-26T02:53:00.053Z,28.53
2019-04-26T02:55:54.539Z,28.33
2019-04-26T02:58:29.596Z,28.43
2019-04-26T03:01:01.772Z,27.77
2019-04-26T03:03:34.386Z,26.07
2019-04-26T03:06:07.152Z,29.07
2019-04-26T03:08:39.968Z,29.90
2019-04-26T03:11:17.006Z,27.97
2019-04-26T03:14:08.740Z,31.83
2019-04-26T03:16:59.876Z,23.60
2019-04-26T03:20:01.142Z,25.80
2019-04-26T03:22:45.692Z,39.83
2019-04-26T03:25:27.089Z,31.33
2019-04-26T03:28:00.283Z,32.63
2019-04-26T03:30:42.742Z,28.60
2019-04-26T03:33:38.656Z,30.07
2019-04-26T03:36:25.530Z,32.30
2019-04-26T03:39:12.847Z,23.00
2019-04-26T03:42:21.429Z,29.80
2019-04-26T03:45:04.161Z,26.00
2019-04-26T03:47:44.493Z,28.60
2019-04-26T03:50:26.785Z,26.93
2019-04-26T03:53:10.910Z,36.10
2019-04-26T03:55:46.900Z,30.73
2019-04-26T03:58:59.500Z,24.47
2019-04-26T04:01:39.573Z,29.47
2019-04-26T04:04:30.102Z,31.90
2019-04-26T04:07:05.063Z,34.47
2019-04-26T04:09:40.784Z,28.83
2019-04-26T04:12:23.299Z,28.57
2019-04-26T04:15:02.529Z,26.80
2019-04-26T04:17:55.337Z,27.77
2019-04-26T04:20:42.438Z,27.43
2019-04-26T04:23:48.950Z,25.93
2019-04-26T04:26:23.327Z,38.70
2019-04-26T04:29:04.058Z,34.77
2019-04-26T04:31:46.417Z,26.60
2019-04-26T04:34:43.976Z,25.20
2019-04-26T04:37:52.649Z,34.63
2019-04-26T04:40:37.623Z,28.60
2019-04-26T04:43:13.278Z,27.47
2019-04-26T04:46:00.216Z,30.63
2019-04-26T04:49:08.008Z,23.83
2019-04-26T04:51:51.539Z,28.33
2019-04-26T04:54:44.632Z,32.33
2019-04-26T04:57:44.198Z,29.77
2019-04-26T05:00:47.606Z,28.73
2019-04-26T05:03:40.839Z,32.73
2019-04-26T05:06:34.363Z,41.17
2019-04-26T05:09:13.058Z,29.53
2019-04-26T05:11:53.955Z,36.00
2019-04-26T05:14:52.177Z,33.90
2019-04-26T05:17:43.783Z,36.83
2019-04-26T05:20:35.128Z,39.57
2019-04-26T05:23:30.192Z,30.37
2019-04-26T05:26:42.746Z,29.73
2019-04-26T05:29:38.467Z,30.77
2019-04-26T05:32:20.815Z,35.43
2019-04-26T05:35:13.683Z,41.27
2019-04-26T05:38:18.435Z,35.37
2019-04-26T05:41:22.219Z,39.43
2019-04-26T05:44:03.584Z,35.47
2019-04-26T05:47:01.151Z,38.63
2019-04-26T05:49:57.944Z,36.97
2019-04-26T05:52:45.023Z,30.37
2019-04-26T05:55:53.946Z,44.60
2019-04-26T05:58:45.185Z,27.13
2019-04-26T06:01:26.039Z,33.97
2019-04-26T06:04:36.962Z,36.60
2019-04-26T06:07:25.113Z,30.80
2019-04-26T06:10:14.894Z,35.53
2019-04-26T06:13:22.796Z,30.00
2019-04-26T06:16:11.862Z,39.27
2019-04-26T06:19:10.609Z,38.30
2019-04-26T06:22:02.166Z,47.43
2019-04-26T06:25:14.319Z,83.10
2019-04-26T06:28:07.042Z,78.10
2019-04-26T06:30:50.629Z,67.67
2019-04-26T06:33:36.386Z,74.93
2019-04-26T06:36:11.089Z,71.70
2019-04-26T06:39:04.224Z,65.60
2019-04-26T06:42:07.414Z,73.80
2019-04-26T06:44:52.244Z,81.00
2019-04-26T06:47:36.417Z,86.20
2019-04-26T06:50:21.871Z,73.37
2019-04-26T06:52:58.193Z,80.57
2019-04-26T06:55:48.742Z,66.47
2019-04-26T06:58:40.521Z,62.57
2019-04-26T07:01:27.775Z,74.37
2019-04-26T07:04:20.719Z,61.93
2019-04-26T07:07:09.433Z,50.33
2019-04-26T07:09:56.233Z,60.00
2019-04-26T07:12:44.778Z,56.47
2019-04-26T07:15:38.773Z,59.67
2019-04-26T07:19:01.185Z,52.20
2019-04-26T07:22:10.901Z,48.77
2019-04-26T07:25:24.201Z,53.77
2019-04-26T07:28:06.056Z,35.93
2019-04-26T07:31:06.187Z,38.77
2019-04-26T07:33:54.529Z,35.80
2019-04-26T07:37:12.130Z,36.77
2019-04-26T07:40:12.743Z,35.53
2019-04-26T07:43:12.487Z,42.80
2019-04-26T07:45:54.737Z,40.97
2019-04-26T07:48:54.217Z,58.27
2019-04-26T07:51:45.067Z,52.33
2019-04-26T07:54:24.418Z,55.53
2019-04-26T07:57:20.266Z,36.97
2019-04-26T08:00:04.168Z,42.07
2019-04-26T08:03:08.704Z,43.20
2019-04-26T08:06:18.931Z,43.47
2019-04-26T08:08:53.905Z,40.67
2019-04-26T08:11:33.036Z,34.13
2019-04-26T08:14:27.559Z,37.57
2019-04-26T08:17:31.588Z,32.27
2019-04-26T08:20:21.472Z,40.23
2019-04-26T08:22:55.398Z,35.13
2019-04-26T08:25:32.325Z,30.47
2019-04-26T08:28:11.822Z,32.77
2019-04-26T08:30:50.349Z,40.20
2019-04-26T08:33:29.909Z,38.90
2019-04-26T08:36:10.623Z,35.93
2019-04-26T08:38:52.533Z,41.80
2019-04-26T08:41:44.219Z,29.57
2019-04-26T08:44:28.472Z,39.00
2019-04-26T08:47:24.853Z,32.90
2019-04-26T08:50:13.010Z,36.20
2019-04-26T08:52:51.362Z,31.20
2019-04-26T08:55:42.216Z,32.87
2019-04-26T08:58:15.728Z,31.10
2019-04-26T09:01:08.338Z,32.87
2019-04-26T09:03:45.063Z,30.97
2019-04-26T09:06:28.465Z,27.63
2019-04-26T09:09:03.975Z,28.70
2019-04-26T09:11:38.246Z,23.37
2019-04-26T09:14:12.288Z,27.97
2019-04-26T09:16:50.531Z,25.73
2019-04-26T09:19:30.432Z,30.40
2019-04-26T09:22:13.257Z,31.47
2019-04-26T09:24:59.411Z,26.23
2019-04-26T09:27:46.646Z,30.17
2019-04-26T09:30:34.432Z,35.37
2019-04-26T09:33:06.453Z,28.17
2019-04-26T09:35:37.251Z,22.60
2019-04-26T09:38:10.630Z,30.03
2019-04-26T09:41:00.635Z,23.97
2019-04-26T09:43:51.345Z,24.80
2019-04-26T09:46:31.248Z,22.87
2019-04-26T09:49:13.546Z,25.13
2019-04-26T09:51:46.264Z,27.57
2019-04-26T09:54:21.673Z,28.07
2019-04-26T09:57:04.553Z,30.73
2019-04-26T09:59:40.056Z,26.67
2019-04-26T10:02:13.462Z,33.60
2019-04-26T10:04:48.422Z,28.57
2019-04-26T10:07:20.061Z,32.43
2019-04-26T10:09:51.720Z,27.77
2019-04-26T10:12:31.104Z,26.17
2019-04-26T10:15:26.693Z,29.43
2019-04-26T10:18:04.736Z,24.00
2019-04-26T10:20:45.999Z,29.03
2019-04-26T10:23:20.067Z,23.60
2019-04-26T10:25:51.828Z,20.30
2019-04-26T10:28:23.420Z,23.07
2019-04-26T10:30:57.302Z,28.60
2019-04-26T10:33:47.359Z,33.47
2019-04-26T10:36:21.754Z,23.13
2019-04-26T10:38:58.380Z,20.90
2019-04-26T10:41:34.610Z,29.57
2019-04-26T10:44:11.550Z,32.43
2019-04-26T10:46:55.674Z,22.50
2019-04-26T10:49:42.571Z,26.30
2019-04-26T10:52:19.191Z,23.77
2019-04-26T10:55:16.117Z,24.70
2019-04-26T10:57:49.206Z,23.93
2019-04-26T11:00:30.414Z,23.20
2019-04-26T11:03:04.423Z,26.90
2019-04-26T11:05:33.877Z,30.73
2019-04-26T11:08:05.808Z,29.50
2019-04-26T11:10:54.890Z,27.20
2019-04-26T11:13:27.097Z,31.10
2019-04-26T11:16:02.569Z,34.07
2019-04-26T11:18:35.551Z,31.77
2019-04-26T11:21:10.287Z,30.07
2019-04-26T11:23:45.490Z,24.07
2019-04-26T11:26:21.576Z,36.53
2019-04-26T11:29:10.968Z,22.70
2019-04-26T11:31:45.593Z,26.97
2019-04-26T11:34:19.177Z,31.00
2019-04-26T11:36:52.839Z,24.03
2019-04-26T11:39:23.637Z,29.87
2019-04-26T11:41:58.906Z,66.80
2019-04-26T11:44:30.362Z,23.50
2019-04-26T11:47:02.920Z,23.80
2019-04-26T11:49:37.289Z,22.57
2019-04-26T11:52:09.591Z,22.63
2019-04-26T11:54:58.700Z,29.20
2019-04-26T11:57:33.356Z,33.23
2019-04-26T12:00:08.386Z,24.43
2019-04-26T12:02:52.296Z,36.17
2019-04-26T12:05:28.552Z,26.93
2019-04-26T12:08:07.075Z,23.93
2019-04-26T12:10:40.437Z,23.03
2019-04-26T12:13:16.288Z,30.03
2019-04-26T12:15:49.523Z,21.60
2019-04-26T12:18:24.684Z,23.97
2019-04-26T12:21:02.176Z,23.43
2019-04-26T12:23:36.058Z,21.90
2019-04-26T12:26:12.956Z,25.47
2019-04-26T12:29:01.144Z,30.60
2019-04-26T12:31:33.721Z,24.27
2019-04-26T12:34:14.186Z,25.60
2019-04-26T12:36:44.001Z,22.47
2019-04-26T12:39:19.439Z,21.13
2019-04-26T12:41:50.046Z,21.70
2019-04-26T12:44:32.175Z,23.73
2019-04-26T12:47:18.994Z,18.37
2019-04-26T12:49:54.571Z,24.60
2019-04-26T12:52:28.426Z,18.97
2019-04-26T12:55:13.711Z,18.87
2019-04-26T12:57:49.205Z,19.13
2019-04-26T13:00:21.763Z,17.67
2019-04-26T13:03:03.560Z,22.43
2019-04-26T13:05:34.247Z,26.60
2019-04-26T13:08:07.978Z,18.57
2019-04-26T13:10:47.170Z,20.43
2019-04-26T13:13:40.300Z,20.17
2019-04-26T13:16:27.839Z,19.50
2019-04-26T13:19:03.413Z,20.90
2019-04-26T13:21:37.355Z,20.07
2019-04-26T13:24:07.991Z,24.03
2019-04-26T13:26:52.101Z,28.30
2019-04-26T13:29:27.285Z,21.73
2019-04-26T13:32:04.969Z,26.23
2019-04-26T13:34:38.374Z,19.07
2019-04-26T13:37:13.513Z,21.13
2019-04-26T13:39:44.202Z,18.90
2019-04-26T13:42:17.457Z,20.20
2019-04-26T13:45:03.334Z,21.27
2019-04-26T13:47:48.593Z,21.73
2019-04-26T13:50:37.643Z,21.63
2019-04-26T13:53:09.832Z,18.40
2019-04-26T13:55:42.639Z,21.20
2019-04-26T13:58:15.367Z,20.77
2019-04-26T14:00:58.905Z,22.63
2019-04-26T14:03:42.009Z,21.43
2019-04-26T14:06:13.587Z,20.03
2019-04-26T14:08:48.823Z,19.27
2019-04-26T14:11:27.902Z,25.57
2019-04-26T14:14:00.082Z,23.37
2019-04-26T14:16:31.044Z,18.80
2019-04-26T14:19:14.697Z,21.80
2019-04-26T14:21:47.356Z,18.90
2019-04-26T14:24:25.233Z,23.03
2019-04-26T14:27:14.949Z,18.43
2019-04-26T14:29:47.554Z,17.23
2019-04-26T14:32:22.835Z,20.60
2019-04-26T14:34:53.104Z,23.00
2019-04-26T14:37:28.882Z,20.13
2019-04-26T14:40:18.975Z,20.03
2019-04-26T14:42:50.056Z,18.17
2019-04-26T14:45:23.553Z,17.13
2019-04-26T14:47:55.256Z,26.10
2019-04-26T14:50:28.215Z,22.87
2019-04-26T14:53:02.286Z,16.87
2019-04-26T14:55:54.678Z,26.43
2019-04-26T14:58:33.316Z,21.70
2019-04-26T15:01:07.558Z,18.47
2019-04-26T15:03:51.479Z,20.00
2019-04-26T15:06:25.614Z,22.73
2019-04-26T15:09:19.531Z,18.30
2019-04-26T15:11:54.126Z,14.80
2019-04-26T15:14:33.437Z,18.50
2019-04-26T15:17:07.267Z,17.53
2019-04-26T15:19:45.924Z,18.47
2019-04-26T15:22:16.693Z,21.37
2019-04-26T15:24:47.331Z,19.80
2019-04-26T15:27:18.465Z,26.00
2019-04-26T15:29:57.204Z,18.47
2019-04-26T15:32:40.185Z,16.63
2019-04-26T15:35:15.468Z,25.43
2019-04-26T15:37:45.419Z,30.30
2019-04-26T15:40:17.623Z,19.33
2019-04-26T15:43:02.621Z,27.90
2019-04-26T15:45:42.316Z,23.90
2019-04-26T15:48:28.481Z,24.57
2019-04-26T15:51:05.214Z,25.80
2019-04-26T15:53:43.495Z,20.70
2019-04-26T15:56:16.282Z,25.83
2019-04-26T15:58:52.456Z,23.13
2019-04-26T16:01:26.453Z,21.30
2019-04-26T16:03:57.036Z,34.70
2019-04-26T16:06:29.439Z,20.20
2019-04-26T16:09:02.347Z,22.73
2019-04-26T16:11:37.247Z,25.63
2019-04-26T16:14:12.392Z,21.57
2019-04-26T16:16:43.150Z,19.70
2019-04-26T16:19:16.122Z,21.13
2019-04-26T16:21:52.727Z,25.87
2019-04-26T16:24:27.983Z,26.90
2019-04-26T16:26:56.441Z,23.83
2019-04-26T16:29:32.970Z,21.80
2019-04-26T16:32:21.993Z,26.03
2019-04-26T16:34:58.353Z,24.60
2019-04-26T16:37:36.823Z,30.93
2019-04-26T16:40:12.375Z,27.60
2019-04-26T16:42:49.588Z,32.03
2019-04-26T16:45:20.288Z,26.93
2019-04-26T16:47:53.666Z,30.77
2019-04-26T16:50:31.355Z,33.43
2019-04-26T16:52:58.525Z,33.80
2019-04-26T16:55:37.959Z,32.50
2019-04-26T16:58:24.845Z,27.17
2019-04-26T17:01:04.689Z,23.13
2019-04-26T17:03:38.242Z,31.77
2019-04-26T17:06:11.421Z,40.00
2019-04-26T17:08:49.155Z,79.30
2019-04-26T17:11:17.782Z,102.07
2019-04-26T17:13:56.596Z,103.87
2019-04-26T17:16:29.685Z,94.10
2019-04-26T17:19:19.927Z,90.57
2019-04-26T17:22:00.948Z,67.97
2019-04-26T17:24:43.833Z,71.37
2019-04-26T17:27:30.145Z,42.47
2019-04-26T17:30:03.123Z,49.17
2019-04-26T17:32:42.203Z,52.40
2019-04-26T17:35:17.302Z,56.03
2019-04-26T17:37:50.634Z,68.80
2019-04-26T17:40:25.241Z,59.97
2019-04-26T17:42:55.023Z,80.87
2019-04-26T17:45:31.494Z,67.70
2019-04-26T17:48:21.161Z,62.27
2019-04-26T17:51:03.252Z,65.37
2019-04-26T17:53:36.842Z,57.67
2019-04-26T17:56:11.040Z,64.87
2019-04-26T17:58:51.644Z,53.67
2019-04-26T18:01:41.480Z,60.73
2019-04-26T18:03:55.837Z,82.63
2019-04-26T18:06:30.961Z,70.97
2019-04-26T18:09:07.431Z,70.40
2019-04-26T18:12:03.460Z,56.33
2019-04-26T18:14:35.686Z,44.43
2019-04-26T18:17:18.651Z,40.10
2019-04-26T18:19:50.967Z,30.70
2019-04-26T18:22:28.486Z,50.27
2019-04-26T18:25:04.356Z,38.00
2019-04-26T18:27:38.330Z,39.73
2019-04-26T18:30:14.843Z,39.30
2019-04-26T18:32:50.675Z,44.93
2019-04-26T18:35:26.179Z,61.50
2019-04-26T18:37:56.892Z,57.03
2019-04-26T18:40:27.781Z,57.93
2019-04-26T18:43:01.036Z,47.33
2019-04-26T18:45:33.824Z,48.13
2019-04-26T18:48:05.962Z,45.93
2019-04-26T18:50:58.137Z,40.53
2019-04-26T18:53:30.723Z,38.73
2019-04-26T18:56:04.328Z,33.47
2019-04-26T18:58:38.724Z,29.47
2019-04-26T19:01:16.254Z,28.50
2019-04-26T19:03:49.903Z,22.87
2019-04-26T19:06:29.724Z,26.60
2019-04-26T19:08:53.152Z,24.87
2019-04-26T19:11:26.527Z,22.07
2019-04-26T19:14:06.323Z,27.10
2019-04-26T19:16:50.251Z,22.43
2019-04-26T19:19:25.906Z,29.03
2019-04-26T19:21:57.420Z,25.00
2019-04-26T19:24:28.043Z,27.43
2019-04-26T19:27:01.782Z,34.27
2019-04-26T19:29:36.153Z,22.13
2019-04-26T19:32:08.997Z,30.53
2019-04-26T19:34:39.647Z,29.60
2019-04-26T19:37:10.386Z,25.10
2019-04-26T19:39:42.733Z,22.30
2019-04-26T19:42:15.142Z,23.23
2019-04-26T19:44:49.439Z,31.97
2019-04-26T19:47:22.712Z,41.47
2019-04-26T19:50:11.774Z,38.40
2019-04-26T19:52:51.714Z,32.97
2019-04-26T19:55:25.553Z,35.83
2019-04-26T19:57:57.965Z,31.83
2019-04-26T20:00:32.036Z,27.73
2019-04-26T20:03:04.116Z,30.63
2019-04-26T20:05:36.358Z,30.33
2019-04-26T20:08:12.030Z,34.70
2019-04-26T20:10:43.733Z,28.80
2019-04-26T20:13:16.731Z,26.60
2019-04-26T20:15:47.500Z,30.47
2019-04-26T20:18:18.222Z,33.17
2019-04-26T20:20:48.985Z,36.30
2019-04-26T20:23:19.821Z,36.47
2019-04-26T20:25:52.709Z,42.10
2019-04-26T20:28:23.048Z,37.13
2019-04-26T20:31:12.200Z,42.43
2019-04-26T20:33:47.764Z,36.93
2019-04-26T20:36:18.142Z,36.17
2019-04-26T20:38:52.088Z,33.17
2019-04-26T20:41:23.058Z,24.50
2019-04-26T20:44:05.127Z,27.90
2019-04-26T20:46:29.603Z,26.40
2019-04-26T20:49:01.437Z,24.33
2019-04-26T20:51:32.560Z,25.60
2019-04-26T20:54:04.686Z,24.67
2019-04-26T20:56:35.392Z,23.47
2019-04-26T20:59:06.914Z,27.33
2019-04-26T21:01:37.542Z,26.00
2019-04-26T21:04:12.237Z,21.93
2019-04-26T21:06:45.329Z,21.83
2019-04-26T21:09:16.383Z,20.27
2019-04-26T21:11:48.572Z,24.83
2019-04-26T21:14:23.851Z,24.50
2019-04-26T21:16:59.666Z,21.97
2019-04-26T21:19:32.748Z,22.97
2019-04-26T21:22:04.232Z,26.47
2019-04-26T21:24:37.240Z,30.40
2019-04-26T21:27:15.707Z,20.30
2019-04-26T21:29:59.159Z,21.33
2019-04-26T21:32:51.481Z,20.57
2019-04-26T21:35:25.087Z,22.07
2019-04-26T21:38:09.126Z,21.70
2019-04-26T21:40:47.778Z,21.50
2019-04-26T21:43:18.480Z,25.03
2019-04-26T21:45:50.603Z,17.67
2019-04-26T21:48:23.523Z,25.00
2019-04-26T21:50:58.885Z,17.70
2019-04-26T21:53:29.856Z,28.77
2019-04-26T21:56:00.666Z,18.83
2019-04-26T21:58:31.231Z,22.40
2019-04-26T22:01:17.436Z,20.83
2019-04-26T22:03:53.640Z,17.40
2019-04-26T22:06:20.074Z,18.37
2019-04-26T22:08:57.259Z,21.57
2019-04-26T22:11:24.724Z,15.13
2019-04-26T22:14:03.169Z,12.67
2019-04-26T22:16:41.555Z,17.83
2019-04-26T22:19:14.748Z,14.50
2019-04-26T22:21:50.423Z,19.37
2019-04-26T22:24:34.184Z,11.73
2019-04-26T22:27:08.429Z,14.80
2019-04-26T22:29:39.036Z,14.57
2019-04-26T22:32:11.575Z,21.97
2019-04-26T22:34:46.182Z,18.57
2019-04-26T22:37:28.803Z,27.97
2019-04-26T22:39:48.206Z,15.27
2019-04-26T22:42:23.819Z,16.13
2019-04-26T22:45:04.920Z,19.53
2019-04-26T22:47:40.908Z,15.67
2019-04-26T22:50:08.306Z,15.03
2019-04-26T22:52:39.063Z,17.50
2019-04-26T22:55:09.836Z,10.13
2019-04-26T22:57:45.411Z,15.87
2019-04-26T23:00:19.900Z,13.10
2019-04-26T23:02:50.667Z,12.20
2019-04-26T23:05:23.042Z,14.27
2019-04-26T23:07:54.665Z,12.00
2019-04-26T23:10:31.009Z,11.03
2019-04-26T23:13:04.400Z,10.63
2019-04-26T23:15:47.501Z,8.17
2019-04-26T23:18:38.812Z,10.97
2019-04-26T23:21:17.558Z,12.50
2019-04-26T23:23:48.149Z,14.67
2019-04-26T23:26:18.770Z,22.00
2019-04-26T23:28:49.364Z,18.37
2019-04-26T23:31:20.127Z,21.10
2019-04-26T23:33:50.827Z,22.83
2019-04-26T23:36:21.510Z,20.43
2019-04-26T23:38:53.147Z,20.70
2019-04-26T23:41:24.024Z,19.60
2019-04-26T23:44:02.499Z,19.93
2019-04-26T23:46:27.160Z,16.10
2019-04-26T23:48:57.857Z,16.13
2019-04-26T23:51:30.119Z,17.83
2019-04-26T23:54:00.860Z,20.53
2019-04-26T23:56:33.203Z,21.97
2019-04-26T23:59:03.959Z,20.70
